Time;durP1;ratioP1;P1;durP2;ratioP2;P2;SDS_P1;SDS_P2;PMS_P1;PMS_P2;Temp;Humidity;BMP_temperature;BMP_pressure;BME280_temperature;BME280_humidity;BME280_pressure;Samples;Min_cycle;Max_cycle;Signal;HPM_P1;HPM_P2
2022/10/24 00:01:34;;;;;;;13.40;3.45;;;18.40;99.90;;;;;;5087448;28;20488;-80
2022/10/24 00:04:00;;;;;;;9.45;3.55;;;18.50;99.90;;;;;;5076872;28;20033;-80
2022/10/24 00:06:26;;;;;;;10.45;2.80;;;18.50;99.90;;;;;;5091869;28;20469;-80
2022/10/24 00:08:52;;;;;;;9.45;3.25;;;18.40;99.90;;;;;;5087420;28;20128;-80
2022/10/24 00:11:21;;;;;;;14.88;3.72;;;18.40;99.90;;;;;;5075165;28;20072;-80
2022/10/24 00:13:47;;;;;;;13.73;4.15;;;18.40;99.90;;;;;;5084329;28;20044;-80
2022/10/24 00:16:13;;;;;;;12.05;2.80;;;18.40;99.90;;;;;;5095206;28;20051;-80
2022/10/24 00:18:39;;;;;;;12.73;3.40;;;18.40;99.90;;;;;;5096558;28;20035;-80
2022/10/24 00:21:06;;;;;;;7.20;3.28;;;18.40;99.90;;;;;;5094989;28;20072;-80
2022/10/24 00:23:31;;;;;;;13.95;4.05;;;18.40;99.90;;;;;;5095936;28;20496;-80
2022/10/24 00:26:00;;;;;;;11.40;3.67;;;18.40;99.90;;;;;;5093373;28;20047;-80
2022/10/24 00:28:27;;;;;;;12.20;3.35;;;18.50;99.90;;;;;;5094431;28;20411;-80
2022/10/24 00:30:53;;;;;;;5.78;3.08;;;18.40;99.90;;;;;;5076059;28;20399;-79
2022/10/24 00:33:19;;;;;;;10.55;4.07;;;18.40;99.90;;;;;;5092152;28;20032;-80
2022/10/24 00:35:45;;;;;;;9.75;3.83;;;18.50;99.90;;;;;;5094353;28;20048;-80
2022/10/24 00:38:11;;;;;;;14.02;3.65;;;18.40;99.90;;;;;;5083481;28;20043;-79
2022/10/24 00:40:37;;;;;;;13.90;3.78;;;18.40;99.90;;;;;;5086440;28;20032;-80
2022/10/24 00:43:03;;;;;;;13.93;3.53;;;18.40;99.90;;;;;;5079517;28;20040;-80
2022/10/24 00:45:43;;;;;;;9.10;3.13;;;18.40;99.90;;;;;;5074498;28;20038;-80
2022/10/24 00:48:24;;;;;;;9.85;3.30;;;18.40;99.90;;;;;;5054606;28;20037;-80
2022/10/24 00:50:54;;;;;;;13.23;3.50;;;18.40;99.90;;;;;;5068018;28;20600;-80
2022/10/24 00:53:21;;;;;;;12.32;3.60;;;18.50;99.90;;;;;;5092051;28;20070;-80
2022/10/24 00:55:50;;;;;;;14.68;3.50;;;18.50;99.90;;;;;;5094346;28;20043;-80
2022/10/24 00:58:18;;;;;;;8.45;3.08;;;18.50;99.90;;;;;;5087084;28;20045;-80
2022/10/24 01:00:44;;;;;;;8.70;2.80;;;18.40;99.90;;;;;;5084347;28;20047;-80
2022/10/24 01:03:11;;;;;;;4.95;2.58;;;18.40;99.90;;;;;;5090299;28;20028;-80
2022/10/24 01:05:49;;;;;;;6.85;2.60;;;18.40;99.90;;;;;;5095498;28;20131;-80
2022/10/24 01:08:30;;;;;;;11.18;3.70;;;18.40;99.90;;;;;;5095817;28;20545;-80
2022/10/24 01:11:08;;;;;;;7.28;3.15;;;18.40;99.90;;;;;;5082690;28;20115;-80
2022/10/24 01:13:55;;;;;;;12.52;3.05;;;18.30;99.90;;;;;;5074156;28;20048;-80
2022/10/24 01:16:47;;;;;;;14.05;3.50;;;18.40;99.90;;;;;;5075195;28;20520;-80
2022/10/24 01:20:17;;;;;;;8.13;3.65;;;18.30;99.90;;;;;;5075238;28;20123;-80
2022/10/24 01:23:04;;;;;;;8.40;3.03;;;18.20;99.90;;;;;;5033190;28;20095;-80
2022/10/24 01:26:04;;;;;;;8.35;3.80;;;18.20;99.90;;;;;;5031043;28;20038;-80
2022/10/24 01:28:47;;;;;;;10.87;3.67;;;18.30;99.90;;;;;;5072399;28;20554;-80
2022/10/24 01:31:41;;;;;;;9.23;2.92;;;18.30;99.90;;;;;;5086569;28;20036;-79
2022/10/24 01:34:21;;;;;;;6.53;2.70;;;18.20;99.90;;;;;;5072481;28;20555;-80
2022/10/24 01:37:02;;;;;;;8.30;3.08;;;18.30;99.90;;;;;;5075544;28;20036;-79
2022/10/24 01:39:35;;;;;;;8.23;2.80;;;18.20;99.90;;;;;;5071515;28;20531;-79
2022/10/24 01:42:03;;;;;;;10.70;3.17;;;18.30;99.90;;;;;;5094697;28;20043;-80
2022/10/24 01:44:36;;;;;;;11.95;2.83;;;18.20;99.90;;;;;;5092858;28;20039;-80
2022/10/24 01:47:07;;;;;;;12.25;2.63;;;18.20;99.90;;;;;;5074567;28;20078;-80
2022/10/24 01:49:36;;;;;;;8.75;2.88;;;18.20;99.90;;;;;;5073328;28;20032;-79
2022/10/24 01:52:05;;;;;;;7.78;2.85;;;18.10;99.90;;;;;;5093785;28;20060;-80
2022/10/24 01:54:32;;;;;;;6.85;2.75;;;18.00;99.90;;;;;;5086290;28;20083;-80
2022/10/24 01:56:57;;;;;;;9.70;3.25;;;18.00;99.90;;;;;;5084552;28;20051;-80
2022/10/24 01:59:29;;;;;;;6.25;2.15;;;18.00;99.90;;;;;;5093266;28;20036;-80
2022/10/24 02:02:03;;;;;;;6.03;2.78;;;18.10;99.90;;;;;;5092372;28;20076;-79
2022/10/24 02:04:31;;;;;;;11.82;2.83;;;18.00;99.90;;;;;;5085609;28;20094;-79
2022/10/24 02:07:03;;;;;;;11.85;2.63;;;18.00;99.90;;;;;;5074350;28;20039;-79
2022/10/24 02:09:30;;;;;;;8.82;2.85;;;;;;;;;;5074529;28;21112;-79
2022/10/24 02:11:57;;;;;;;7.35;2.97;;;17.90;99.90;;;;;;5080467;28;20552;-79
2022/10/24 02:14:27;;;;;;;7.57;2.42;;;;;;;;;;5092907;28;20052;-79
2022/10/24 02:16:53;;;;;;;11.25;2.60;;;17.90;99.90;;;;;;5093644;28;20032;-79
2022/10/24 02:19:20;;;;;;;7.65;2.80;;;18.00;99.90;;;;;;5094329;28;20108;-79
2022/10/24 02:21:48;;;;;;;6.85;2.97;;;18.00;99.90;;;;;;5079406;28;20423;-80
2022/10/24 02:24:41;;;;;;;7.65;2.30;;;17.90;99.90;;;;;;5073989;28;20043;-80
2022/10/24 02:27:14;;;;;;;9.02;3.13;;;17.90;99.90;;;;;;5074053;28;20044;-80
2022/10/24 02:29:48;;;;;;;10.10;2.38;;;17.90;99.90;;;;;;5074014;28;20044;-80
2022/10/24 02:32:21;;;;;;;9.85;2.38;;;17.80;99.90;;;;;;5091493;28;20116;-80
2022/10/24 02:34:48;;;;;;;4.85;2.22;;;17.80;99.90;;;;;;5090935;28;20052;-80
2022/10/24 02:37:15;;;;;;;10.45;3.42;;;17.80;99.90;;;;;;5072428;28;20033;-80
2022/10/24 02:39:46;;;;;;;10.32;2.08;;;17.80;99.90;;;;;;5074429;28;20052;-80
2022/10/24 02:42:13;;;;;;;4.47;2.05;;;17.70;99.90;;;;;;5092355;28;20038;-80
2022/10/24 02:44:41;;;;;;;8.60;2.10;;;17.70;99.90;;;;;;5091609;28;20047;-80
2022/10/24 02:47:10;;;;;;;7.93;2.17;;;17.70;99.90;;;;;;5073930;28;20120;-80
2022/10/24 02:49:35;;;;;;;9.82;2.13;;;17.70;99.90;;;;;;5073586;28;20132;-82
2022/10/24 02:52:01;;;;;;;6.13;2.00;;;17.70;99.90;;;;;;5088099;28;20107;-80
2022/10/24 02:54:27;;;;;;;5.30;1.60;;;17.70;99.90;;;;;;5092185;28;20126;-80
2022/10/24 02:57:00;;;;;;;4.82;1.70;;;17.70;99.90;;;;;;5091990;28;20063;-81
2022/10/24 02:59:26;;;;;;;8.68;1.98;;;17.70;99.90;;;;;;5093620;28;20066;-80
2022/10/24 03:01:52;;;;;;;8.55;2.42;;;17.70;99.90;;;;;;5080074;28;20484;-80
2022/10/24 03:04:17;;;;;;;5.90;2.03;;;17.70;99.90;;;;;;5072214;28;20458;-80
2022/10/24 03:06:43;;;;;;;7.45;2.33;;;17.70;99.90;;;;;;5074486;28;20040;-79
2022/10/24 03:09:09;;;;;;;4.75;1.63;;;17.70;99.90;;;;;;5083378;28;20072;-79
2022/10/24 03:11:35;;;;;;;4.70;2.22;;;17.70;99.90;;;;;;5072411;28;20082;-81
2022/10/24 03:14:01;;;;;;;7.93;2.80;;;17.70;99.90;;;;;;5071953;28;20049;-80
2022/10/24 03:16:27;;;;;;;7.70;2.75;;;17.70;99.90;;;;;;5080613;28;20032;-80
2022/10/24 03:18:53;;;;;;;4.18;2.78;;;17.60;99.90;;;;;;5080887;28;20449;-80
2022/10/24 03:21:20;;;;;;;7.63;1.85;;;17.60;99.90;;;;;;5083521;28;20036;-80
2022/10/24 03:23:45;;;;;;;9.93;2.63;;;17.70;99.90;;;;;;5093842;28;20044;-80
2022/10/24 03:26:11;;;;;;;9.25;2.80;;;17.70;99.90;;;;;;5089968;28;20039;-80
2022/10/24 03:28:38;;;;;;;8.35;2.65;;;17.70;99.90;;;;;;5092290;28;20044;-80
2022/10/24 03:31:04;;;;;;;4.53;1.67;;;17.70;99.90;;;;;;5073840;28;20116;-80
2022/10/24 03:33:30;;;;;;;6.32;2.97;;;17.70;99.90;;;;;;5053994;28;20484;-79
2022/10/24 03:35:55;;;;;;;9.32;2.70;;;17.70;99.90;;;;;;5069411;28;20051;-80
2022/10/24 03:38:22;;;;;;;4.95;1.88;;;17.70;99.90;;;;;;5088546;28;20044;-80
2022/10/24 03:40:48;;;;;;;9.10;2.90;;;17.70;99.90;;;;;;5082380;28;20102;-80
2022/10/24 03:43:14;;;;;;;8.23;2.38;;;17.70;99.90;;;;;;5073313;28;20526;-79
2022/10/24 03:45:40;;;;;;;8.23;2.50;;;17.60;99.90;;;;;;5071924;28;20106;-80
2022/10/24 03:48:06;;;;;;;7.45;2.08;;;17.70;99.90;;;;;;5073286;28;20032;-80
2022/10/24 03:50:32;;;;;;;4.95;2.65;;;17.70;99.90;;;;;;5077671;28;20055;-80
2022/10/24 03:52:58;;;;;;;10.55;2.40;;;17.70;99.90;;;;;;5076149;28;20071;-80
2022/10/24 03:55:25;;;;;;;7.70;2.45;;;17.70;99.90;;;;;;5092424;28;20063;-80
2022/10/24 03:57:51;;;;;;;8.63;2.63;;;17.70;99.90;;;;;;5079283;28;20032;-80
2022/10/24 04:00:18;;;;;;;11.93;3.15;;;17.70;99.90;;;;;;5079882;28;20040;-80
2022/10/24 04:02:44;;;;;;;7.00;2.33;;;17.70;99.90;;;;;;5096686;28;20032;-80
2022/10/24 04:05:10;;;;;;;5.75;2.50;;;17.60;99.90;;;;;;5096564;28;20516;-80
2022/10/24 04:07:36;;;;;;;8.63;2.67;;;17.60;99.90;;;;;;5094070;28;20337;-80
2022/10/24 04:10:02;;;;;;;10.73;2.97;;;17.60;99.90;;;;;;5078458;28;20051;-80
2022/10/24 04:12:28;;;;;;;11.35;2.67;;;17.70;99.90;;;;;;5096770;28;20127;-80
2022/10/24 04:14:54;;;;;;;7.72;3.47;;;17.70;99.90;;;;;;5084023;28;20645;-80
2022/10/24 04:17:19;;;;;;;6.75;2.40;;;17.70;99.90;;;;;;5076415;28;20039;-80
2022/10/24 04:19:45;;;;;;;8.27;2.78;;;17.80;99.90;;;;;;5077411;28;20075;-81
2022/10/24 04:22:11;;;;;;;6.18;2.15;;;17.70;99.90;;;;;;5094758;28;20114;-80
2022/10/24 04:24:38;;;;;;;8.43;1.77;;;17.80;99.90;;;;;;5096081;28;20044;-80
2022/10/24 04:27:05;;;;;;;6.80;2.45;;;17.80;99.90;;;;;;5094510;28;20046;-80
2022/10/24 04:29:30;;;;;;;12.90;2.67;;;17.90;99.90;;;;;;5094648;28;20399;-80
2022/10/24 04:31:56;;;;;;;14.60;3.90;;;17.90;99.90;;;;;;5081632;28;20124;-80
2022/10/24 04:34:22;;;;;;;12.15;2.60;;;17.90;99.90;;;;;;5075723;28;20143;-80
2022/10/24 04:36:48;;;;;;;7.05;2.88;;;17.90;99.90;;;;;;5076825;28;20055;-80
2022/10/24 04:39:13;;;;;;;5.22;2.33;;;18.00;99.90;;;;;;5090112;28;20043;-79
2022/10/24 04:41:39;;;;;;;12.23;2.40;;;17.90;99.90;;;;;;5075755;28;20040;-80
2022/10/24 04:44:05;;;;;;;7.20;2.60;;;18.00;99.90;;;;;;5096266;28;20081;-81
2022/10/24 04:46:31;;;;;;;8.90;2.80;;;17.90;99.90;;;;;;5094037;28;20388;-80
2022/10/24 04:48:57;;;;;;;8.98;2.78;;;18.00;99.90;;;;;;5085865;28;20469;-80
2022/10/24 04:51:22;;;;;;;8.38;2.60;;;18.00;99.90;;;;;;5074334;28;20518;-80
2022/10/24 04:53:49;;;;;;;9.40;2.45;;;18.00;99.90;;;;;;5075336;28;20123;-80
2022/10/24 04:56:14;;;;;;;7.20;2.42;;;18.00;99.90;;;;;;5075620;28;20055;-80
2022/10/24 04:58:40;;;;;;;6.82;2.60;;;18.00;99.90;;;;;;5074249;28;20036;-80
2022/10/24 05:01:06;;;;;;;10.30;2.65;;;18.00;99.90;;;;;;5075583;28;20044;-80
2022/10/24 05:03:32;;;;;;;7.82;2.40;;;18.00;99.90;;;;;;5075426;28;20039;-80
2022/10/24 05:05:57;;;;;;;6.60;2.20;;;17.90;99.90;;;;;;5075457;28;20122;-80
2022/10/24 05:08:23;;;;;;;6.47;2.17;;;17.90;99.90;;;;;;5073831;28;20033;-80
2022/10/24 05:10:49;;;;;;;5.20;2.50;;;17.90;99.90;;;;;;5074081;28;20051;-80
2022/10/24 05:13:14;;;;;;;8.80;2.38;;;17.90;99.90;;;;;;5075406;28;20032;-80
2022/10/24 05:15:40;;;;;;;9.20;2.63;;;17.90;99.90;;;;;;5074048;28;20055;-80
2022/10/24 05:18:06;;;;;;;8.60;2.83;;;17.90;99.90;;;;;;5074119;28;20033;-80
2022/10/24 05:20:32;;;;;;;7.80;2.92;;;17.90;99.90;;;;;;5074045;28;20063;-80
2022/10/24 05:22:58;;;;;;;5.35;2.03;;;17.90;99.90;;;;;;5073877;28;20120;-80
2022/10/24 05:25:24;;;;;;;6.10;2.30;;;17.80;99.90;;;;;;5075217;28;20093;-80
2022/10/24 05:27:49;;;;;;;12.20;2.63;;;17.80;99.90;;;;;;5075122;28;20048;-80
2022/10/24 05:30:15;;;;;;;5.85;2.72;;;17.70;99.90;;;;;;5073753;28;20041;-80
2022/10/24 05:32:41;;;;;;;8.63;2.95;;;17.70;99.90;;;;;;5072795;28;20584;-80
2022/10/24 05:35:07;;;;;;;9.93;2.67;;;17.70;99.90;;;;;;5074971;28;20052;-79
2022/10/24 05:37:33;;;;;;;8.27;2.50;;;17.70;99.90;;;;;;5072313;28;20043;-78
2022/10/24 05:39:59;;;;;;;2.95;1.60;;;17.70;99.90;;;;;;5074772;28;20045;-79
2022/10/24 05:42:24;;;;;;;6.47;2.30;;;17.70;99.90;;;;;;5074969;28;20058;-79
2022/10/24 05:44:50;;;;;;;5.72;2.38;;;17.70;99.90;;;;;;5073455;28;20081;-79
2022/10/24 05:47:16;;;;;;;8.38;2.67;;;17.70;99.90;;;;;;5073495;28;20028;-79
2022/10/24 05:49:42;;;;;;;8.65;2.95;;;17.70;99.90;;;;;;5074713;28;20513;-79
2022/10/24 05:52:08;;;;;;;7.70;2.88;;;17.60;99.90;;;;;;5074720;28;20114;-80
2022/10/24 05:54:33;;;;;;;7.03;2.53;;;17.70;99.90;;;;;;5074474;28;20131;-81
2022/10/24 05:56:59;;;;;;;8.25;2.90;;;17.70;99.90;;;;;;5073256;28;20065;-84
2022/10/24 05:59:25;;;;;;;5.55;2.53;;;17.70;99.90;;;;;;5073231;28;20048;-79
2022/10/24 06:01:51;;;;;;;6.45;2.65;;;17.70;99.90;;;;;;5074516;28;20036;-78
2022/10/24 06:04:16;;;;;;;7.10;3.03;;;17.70;99.90;;;;;;5072989;28;20396;-79
2022/10/24 06:06:44;;;;;;;7.50;3.28;;;17.60;99.90;;;;;;5074287;28;20036;-79
2022/10/24 06:09:11;;;;;;;7.65;2.63;;;17.50;99.90;;;;;;5073284;28;20036;-79
2022/10/24 06:11:37;;;;;;;7.18;3.28;;;;;;;;;;5073052;28;20039;-79
2022/10/24 06:14:04;;;;;;;13.15;3.20;;;17.20;99.90;;;;;;5072129;28;20556;-79
2022/10/24 06:16:32;;;;;;;10.40;2.53;;;17.20;99.90;;;;;;5073162;28;20135;-79
2022/10/24 06:18:58;;;;;;;14.35;2.85;;;17.30;99.90;;;;;;5074307;28;20036;-79
2022/10/24 06:21:24;;;;;;;9.25;3.00;;;17.30;99.90;;;;;;5073842;28;20056;-79
2022/10/24 06:23:50;;;;;;;9.00;2.92;;;17.50;99.90;;;;;;5069722;28;20035;-79
2022/10/24 06:26:16;;;;;;;7.25;2.70;;;17.60;99.90;;;;;;5071525;28;20040;-80
2022/10/24 06:28:42;;;;;;;7.53;2.67;;;17.60;99.90;;;;;;5073980;28;20499;-79
2022/10/24 06:31:09;;;;;;;11.25;3.30;;;17.60;99.90;;;;;;5074140;28;20044;-80
2022/10/24 06:33:35;;;;;;;9.13;3.17;;;17.40;99.90;;;;;;5073962;28;20093;-81
2022/10/24 06:36:04;;;;;;;9.30;2.75;;;17.30;99.90;;;;;;5073733;28;20496;-79
2022/10/24 06:38:30;;;;;;;9.20;2.83;;;17.40;99.90;;;;;;5073793;28;20120;-79
2022/10/24 06:40:57;;;;;;;11.43;4.18;;;17.50;99.90;;;;;;5072672;28;20036;-79
2022/10/24 06:43:22;;;;;;;15.65;3.45;;;17.50;99.90;;;;;;5073649;28;20036;-79
2022/10/24 06:45:48;;;;;;;15.93;3.10;;;17.50;99.90;;;;;;5072680;28;20040;-79
2022/10/24 06:48:14;;;;;;;7.40;3.20;;;17.50;99.90;;;;;;5073930;28;20454;-79
2022/10/24 06:50:40;;;;;;;7.03;3.25;;;17.60;99.90;;;;;;5072488;28;20032;-79
2022/10/24 06:53:09;;;;;;;6.53;3.08;;;17.60;99.90;;;;;;5073908;28;20032;-79
2022/10/24 06:55:37;;;;;;;9.02;3.08;;;17.50;99.90;;;;;;5072444;28;20415;-79
2022/10/24 06:58:05;;;;;;;11.40;3.42;;;17.60;99.90;;;;;;5073804;28;20048;-80
2022/10/24 07:00:32;;;;;;;8.60;3.05;;;17.60;99.90;;;;;;5073866;28;20047;-84
2022/10/24 07:02:58;;;;;;;9.77;3.60;;;17.50;99.90;;;;;;5072503;28;20476;-79
2022/10/24 07:05:24;;;;;;;9.25;3.20;;;17.50;99.90;;;;;;5073708;28;20036;-82
2022/10/24 07:07:50;;;;;;;8.00;3.05;;;17.40;99.90;;;;;;5072303;28;20089;-78
2022/10/24 07:10:15;;;;;;;8.98;3.55;;;17.40;99.90;;;;;;5072349;28;20036;-81
2022/10/24 07:12:42;;;;;;;9.88;3.30;;;17.40;99.90;;;;;;5073946;28;20450;-79
2022/10/24 07:15:08;;;;;;;14.15;3.38;;;17.40;99.90;;;;;;5072176;28;20416;-83
2022/10/24 07:17:44;;;;;;;6.70;2.22;;;17.40;99.90;;;;;;5071952;28;20086;-79
2022/10/24 07:20:11;;;;;;;6.80;3.25;;;17.30;99.90;;;;;;5073497;28;20044;-79
2022/10/24 07:22:37;;;;;;;7.35;3.08;;;17.30;99.90;;;;;;5072251;28;20036;-79
2022/10/24 07:25:04;;;;;;;7.07;3.10;;;17.30;99.90;;;;;;5073908;28;20040;-79
2022/10/24 07:27:30;;;;;;;8.65;3.40;;;17.30;99.90;;;;;;5076102;28;20040;-79
2022/10/24 07:29:56;;;;;;;8.35;3.30;;;17.30;99.90;;;;;;5077393;28;20526;-81
2022/10/24 07:32:22;;;;;;;9.55;3.10;;;17.20;99.90;;;;;;5077312;28;20036;-78
2022/10/24 07:34:48;;;;;;;9.35;2.90;;;17.20;99.90;;;;;;5075145;28;20040;-79
2022/10/24 07:37:15;;;;;;;12.10;3.33;;;17.30;99.90;;;;;;5065515;28;20041;-79
2022/10/24 07:39:41;;;;;;;11.80;3.22;;;17.20;99.90;;;;;;5054870;28;20045;-79
2022/10/24 07:42:06;;;;;;;14.88;4.53;;;17.30;99.90;;;;;;5076568;28;20032;-81
2022/10/24 07:44:32;;;;;;;8.25;2.70;;;17.40;99.90;;;;;;5077023;28;20513;-79
2022/10/24 07:46:58;;;;;;;6.65;2.50;;;17.40;99.90;;;;;;5075436;28;20182;-78
2022/10/24 07:49:24;;;;;;;8.43;3.10;;;17.50;99.90;;;;;;5076811;28;20102;-79
2022/10/24 07:51:50;;;;;;;12.40;3.10;;;17.60;99.90;;;;;;5076961;28;20040;-78
2022/10/24 07:54:15;;;;;;;9.15;3.30;;;17.70;99.90;;;;;;5076826;28;20050;-79
2022/10/24 07:56:41;;;;;;;12.32;3.15;;;17.70;99.90;;;;;;5077003;28;20115;-78
2022/10/24 07:59:07;;;;;;;14.48;2.80;;;17.70;99.90;;;;;;5075333;28;20123;-77
2022/10/24 08:01:33;;;;;;;11.65;2.90;;;17.70;99.90;;;;;;5075992;28;20068;-77
2022/10/24 08:03:59;;;;;;;14.07;2.72;;;17.70;99.90;;;;;;5073420;28;20123;-77
2022/10/24 08:06:29;;;;;;;8.13;2.90;;;17.80;99.90;;;;;;5074606;28;20138;-79
2022/10/24 08:08:55;;;;;;;11.02;2.95;;;17.90;99.90;;;;;;5073135;28;20119;-77
2022/10/24 08:11:26;;;;;;;6.03;2.75;;;18.00;99.90;;;;;;5074765;28;20643;-78
2022/10/24 08:13:52;;;;;;;;;;;18.00;99.90;;;;;;5073960;28;20059;-78
2022/10/24 08:16:20;;;;;;;12.68;2.58;;;18.00;99.90;;;;;;5074629;28;19916;-77
2022/10/24 08:18:47;;;;;;;5.97;1.95;;;18.00;99.90;;;;;;5076318;28;20032;-77
2022/10/24 08:21:15;;;;;;;4.32;2.90;;;18.00;99.90;;;;;;5074824;28;20041;-78
2022/10/24 08:23:44;;;;;;;12.82;2.72;;;18.10;99.90;;;;;;5075715;28;20040;-78
2022/10/24 08:26:16;;;;;;;10.15;2.55;;;18.20;99.90;;;;;;5075255;28;20089;-78
2022/10/24 08:28:42;;;;;;;11.25;2.38;;;18.20;99.90;;;;;;5076117;28;20072;-78
2022/10/24 08:31:11;;;;;;;8.93;2.63;;;18.30;99.90;;;;;;5076304;28;20119;-78
2022/10/24 08:33:37;;;;;;;6.70;2.60;;;18.40;99.90;;;;;;5075460;28;20040;-77
2022/10/24 08:36:10;;;;;;;7.68;2.40;;;18.40;99.90;;;;;;5075343;28;20040;-77
2022/10/24 08:38:36;;;;;;;11.02;3.45;;;18.60;99.90;;;;;;5075250;28;20044;-80
2022/10/24 08:41:02;;;;;;;8.20;2.65;;;18.60;99.90;;;;;;5073263;28;20043;-79
2022/10/24 08:43:28;;;;;;;9.60;2.75;;;18.50;99.90;;;;;;5074147;28;20040;-80
2022/10/24 08:46:30;;;;;;;14.13;2.75;;;18.40;99.90;;;;;;5072318;28;20036;-80
2022/10/24 08:49:24;;;;;;;4.72;2.30;;;18.50;99.90;;;;;;5066301;28;20044;-80
2022/10/24 08:51:53;;;;;;;9.52;3.60;;;18.50;99.90;;;;;;5067172;28;20043;-80
2022/10/24 08:54:23;;;;;;;6.88;2.97;;;18.50;99.90;;;;;;5071744;28;20052;-80
2022/10/24 08:56:53;;;;;;;9.60;2.70;;;18.70;99.90;;;;;;5073830;28;20033;-80
2022/10/24 08:59:19;;;;;;;12.32;2.60;;;18.70;99.90;;;;;;5074767;28;20032;-80
2022/10/24 09:02:04;;;;;;;10.75;2.60;;;18.70;99.90;;;;;;5074122;28;20044;-81
2022/10/24 09:04:37;;;;;;;7.32;2.35;;;18.70;99.90;;;;;;5075594;28;20046;-80
2022/10/24 09:07:03;;;;;;;6.13;2.63;;;18.80;99.90;;;;;;5074213;28;20044;-80
2022/10/24 09:09:41;;;;;;;8.60;2.20;;;18.90;99.90;;;;;;5074315;28;20384;-80
2022/10/24 09:12:12;;;;;;;12.13;2.17;;;18.80;99.90;;;;;;5074177;28;20047;-80
2022/10/24 09:14:39;;;;;;;;;;;18.90;99.90;;;;;;5075864;28;20044;-80
2022/10/24 09:17:22;;;;;;;6.55;1.80;;;19.00;99.90;;;;;;5074159;28;19958;-80
2022/10/24 09:20:25;;;;;;;10.13;2.42;;;19.00;99.90;;;;;;5075486;28;20438;-79
2022/10/24 09:23:04;;;;;;;6.32;1.98;;;19.00;99.90;;;;;;5075286;28;20037;-80
2022/10/24 09:25:34;;;;;;;12.35;4.60;;;18.90;99.90;;;;;;5075297;28;20392;-80
2022/10/24 09:28:04;;;;;;;9.32;4.10;;;19.00;99.90;;;;;;5075051;28;20039;-80
2022/10/24 09:30:30;;;;;;;7.55;2.85;;;19.10;99.90;;;;;;5073403;28;20044;-80
2022/10/24 09:33:01;;;;;;;7.68;1.90;;;19.10;99.90;;;;;;5075037;28;20496;-80
2022/10/24 09:35:28;;;;;;;;;;;19.10;99.90;;;;;;5074176;28;20054;-80
2022/10/24 09:38:18;;;;;;;5.70;1.95;;;19.00;99.90;;;;;;5074817;28;19912;-80
2022/10/24 09:40:49;;;;;;;7.90;3.92;;;19.00;99.90;;;;;;5074847;28;20098;-80
2022/10/24 09:43:34;;;;;;;6.13;2.33;;;19.00;99.90;;;;;;5074999;28;20036;-80
2022/10/24 09:46:07;;;;;;;6.72;2.30;;;19.10;99.90;;;;;;5075069;28;20087;-80
2022/10/24 09:48:48;;;;;;;6.82;2.33;;;19.10;99.90;;;;;;5073599;28;20040;-80
2022/10/24 09:51:41;;;;;;;7.30;1.73;;;19.10;99.90;;;;;;5074932;28;20044;-80
2022/10/24 09:54:19;;;;;;;10.15;1.92;;;19.20;99.90;;;;;;5067093;28;20045;-80
2022/10/24 09:57:01;;;;;;;5.28;1.98;;;19.20;99.90;;;;;;5074805;28;20047;-80
2022/10/24 09:59:44;;;;;;;6.80;1.55;;;19.20;99.90;;;;;;5074625;28;20491;-80
2022/10/24 10:02:11;;;;;;;6.45;1.95;;;19.40;99.90;;;;;;5074244;28;20093;-80
2022/10/24 10:04:38;;;;;;;9.40;2.28;;;19.30;99.90;;;;;;5074397;28;20177;-80
2022/10/24 10:07:25;;;;;;;4.93;1.73;;;19.40;99.90;;;;;;5073137;28;20040;-80
2022/10/24 10:09:54;;;;;;;10.02;1.70;;;19.50;99.90;;;;;;5074384;28;20040;-80
2022/10/24 10:12:38;;;;;;;9.73;2.60;;;19.70;99.90;;;;;;5074491;28;20364;-80
2022/10/24 10:15:42;;;;;;;6.15;1.70;;;19.90;99.90;;;;;;5072332;28;20090;-80
2022/10/24 10:18:24;;;;;;;4.20;1.85;;;20.00;99.90;;;;;;5051840;28;20438;-80
2022/10/24 10:21:10;;;;;;;5.82;2.00;;;20.00;99.90;;;;;;5072442;28;20043;-80
2022/10/24 10:23:46;;;;;;;9.57;1.77;;;20.20;99.90;;;;;;5074333;28;20043;-80
2022/10/24 10:26:43;;;;;;;4.63;1.83;;;20.30;99.90;;;;;;5074290;28;20369;-80
2022/10/24 10:29:15;;;;;;;6.57;2.03;;;20.30;99.90;;;;;;5073023;28;20442;-80
2022/10/24 10:31:45;;;;;;;5.72;1.80;;;20.20;99.90;;;;;;5074205;28;20488;-80
2022/10/24 10:34:22;;;;;;;8.55;1.92;;;20.20;99.90;;;;;;5074098;28;20036;-80
2022/10/24 10:37:22;;;;;;;8.73;3.05;;;20.20;99.90;;;;;;5073957;28;20048;-80
2022/10/24 10:40:10;;;;;;;11.57;3.30;;;20.20;99.90;;;;;;5073935;28;20033;-80
2022/10/24 10:42:49;;;;;;;6.60;1.80;;;20.20;99.90;;;;;;5074040;28;20044;-80
2022/10/24 10:45:28;;;;;;;5.88;1.77;;;20.30;99.90;;;;;;5074481;28;20040;-80
2022/10/24 10:48:21;;;;;;;8.65;2.08;;;20.40;99.90;;;;;;5073891;28;20143;-80
2022/10/24 10:51:04;;;;;;;6.47;2.40;;;20.40;99.90;;;;;;5074028;28;20544;-80
2022/10/24 10:53:32;;;;;;;3.53;1.80;;;20.60;99.90;;;;;;5073624;28;20033;-80
2022/10/24 10:56:16;;;;;;;5.03;1.48;;;20.90;99.90;;;;;;5072762;28;20052;-80
2022/10/24 10:58:55;;;;;;;4.85;1.67;;;21.10;99.90;;;;;;5073790;28;20488;-80
2022/10/24 11:01:36;;;;;;;5.22;1.58;;;21.20;99.90;;;;;;5078540;28;20105;-80
2022/10/24 11:04:25;;;;;;;6.45;1.40;;;21.00;99.90;;;;;;5079126;28;20399;-80
2022/10/24 11:07:26;;;;;;;4.80;0.95;;;20.80;99.90;;;;;;5079082;28;20060;-81
2022/10/24 11:09:57;;;;;;;4.88;1.02;;;20.40;99.90;;;;;;5080368;28;20050;-79
2022/10/24 11:12:34;;;;;;;2.97;0.98;;;20.30;99.90;;;;;;5080431;28;20064;-80
2022/10/24 11:15:23;;;;;;;2.15;0.73;;;20.30;99.90;;;;;;5079938;28;20134;-80
2022/10/24 11:18:30;;;;;;;2.47;1.00;;;20.30;99.90;;;;;;5080208;28;20074;-80
2022/10/24 11:21:04;;;;;;;1.30;0.50;;;20.40;99.90;;;;;;5021213;28;20044;-80
2022/10/24 11:23:48;;;;;;;2.35;0.82;;;20.50;99.90;;;;;;5021035;28;20128;-80
2022/10/24 11:26:25;;;;;;;1.77;0.60;;;20.50;99.90;;;;;;5065303;28;20553;-79
2022/10/24 11:29:01;;;;;;;5.13;1.02;;;20.70;99.90;;;;;;5080129;28;20119;-79
2022/10/24 11:31:39;;;;;;;4.15;0.70;;;20.70;99.90;;;;;;5080244;28;20044;-79
2022/10/24 11:34:17;;;;;;;0.93;0.50;;;20.60;99.90;;;;;;5080020;28;20040;-82
2022/10/24 11:36:58;;;;;;;4.95;1.05;;;20.80;99.90;;;;;;5078857;28;20048;-80
2022/10/24 11:39:30;;;;;;;2.28;0.60;;;20.70;99.90;;;;;;5078592;28;20044;-79
2022/10/24 11:42:17;;;;;;;1.88;0.80;;;20.50;99.90;;;;;;5067089;28;20036;-80
2022/10/24 11:44:48;;;;;;;2.63;0.73;;;20.40;99.90;;;;;;5058386;28;20037;-79
2022/10/24 11:47:24;;;;;;;0.73;0.43;;;20.50;99.90;;;;;;5060333;28;20056;-80
2022/10/24 11:50:11;;;;;;;1.73;0.70;;;20.40;99.90;;;;;;5058817;28;20033;-79
2022/10/24 11:53:12;;;;;;;1.92;0.63;;;20.40;99.90;;;;;;5059940;28;20120;-80
2022/10/24 11:55:42;;;;;;;4.07;1.27;;;20.40;99.90;;;;;;5059815;28;20048;-80
2022/10/24 11:58:11;;;;;;;;;;;20.30;99.90;;;;;;5060105;28;20033;-80
2022/10/24 12:01:05;;;;;;;2.15;0.80;;;20.30;99.90;;;;;;5059969;28;19908;-82
2022/10/24 12:03:55;;;;;;;3.38;0.65;;;20.30;99.90;;;;;;5058590;28;20512;-80
2022/10/24 12:06:27;;;;;;;6.75;0.80;;;20.50;99.90;;;;;;5058773;28;20086;-80
2022/10/24 12:09:16;;;;;;;4.35;1.08;;;20.40;99.90;;;;;;5058667;28;20043;-80
2022/10/24 12:11:58;;;;;;;1.85;0.77;;;20.30;99.90;;;;;;5054488;28;20037;-80
2022/10/24 12:14:43;;;;;;;2.80;0.60;;;20.30;99.90;;;;;;5058356;28;20040;-81
2022/10/24 12:17:31;;;;;;;2.38;0.63;;;20.40;99.90;;;;;;5055295;28;20377;-79
2022/10/24 12:19:59;;;;;;;4.18;0.60;;;20.80;99.90;;;;;;5055806;28;20037;-80
2022/10/24 12:22:33;;;;;;;3.63;0.63;;;21.30;99.90;;;;;;5056728;28;20041;-79
2022/10/24 12:25:16;;;;;;;1.30;0.45;;;21.70;99.90;;;;;;5056612;28;20132;-80
2022/10/24 12:27:42;;;;;;;4.55;0.60;;;21.90;99.90;;;;;;5055336;28;20036;-80
2022/10/24 12:30:08;;;;;;;1.20;0.70;;;21.80;99.90;;;;;;5054668;28;20563;-82
2022/10/24 12:32:48;;;;;;;1.15;0.43;;;21.80;99.30;;;;;;5056333;28;20052;-80
2022/10/24 12:35:26;;;;;;;1.10;0.40;;;21.80;98.80;;;;;;5054793;28;20053;-80
2022/10/24 12:37:53;;;;;;;1.92;0.60;;;21.90;99.20;;;;;;5054544;28;20446;-83
2022/10/24 12:40:43;;;;;;;1.73;0.52;;;21.70;98.30;;;;;;5056452;28;20082;-80
2022/10/24 12:43:32;;;;;;;4.90;0.52;;;21.50;97.80;;;;;;5057809;28;20067;-80
2022/10/24 12:46:00;;;;;;;4.20;0.80;;;21.40;97.70;;;;;;5057559;28;20121;-80
2022/10/24 12:48:36;;;;;;;5.70;0.77;;;21.20;97.70;;;;;;5057135;28;20500;-82
2022/10/24 12:51:24;;;;;;;1.55;0.50;;;21.20;98.00;;;;;;5108523;28;20062;-80
2022/10/24 12:54:39;;;;;;;3.30;0.70;;;21.40;98.60;;;;;;5077319;28;20032;-80
2022/10/24 12:57:20;;;;;;;8.75;0.90;;;;;;;;;;5036354;28;20073;-80
2022/10/24 12:59:46;;;;;;;;;;;;;;;;;;5077589;28;20052;-80
2022/10/24 13:02:15;;;;;;;3.60;0.80;;;22.20;96.90;;;;;;5077606;28;20362;-79
2022/10/24 13:04:54;;;;;;;2.60;0.65;;;22.30;99.90;;;;;;5080507;28;20036;-83
2022/10/24 13:08:04;;;;;;;2.05;0.80;;;22.40;97.80;;;;;;5082064;28;20032;-79
2022/10/24 13:10:36;;;;;;;3.30;0.80;;;22.40;97.30;;;;;;5081072;28;20032;-79
2022/10/24 13:13:19;;;;;;;2.92;0.82;;;22.30;96.00;;;;;;5080667;28;20048;-79